Weather at Bluestem Airport

Public forecast

Using degrees Fahrenheit for public forecast. Weather courtesy of forecast.io.

Closest aviation weather report (METAR) to Bluestem Airport

Closest report is Tulsa International Airport, 12.0 nm (22.2 km) S. Retrieved 2021/10/18 00:53 UTC (47 minutes ago):

KTUL 180053Z 17008KT 10SM FEW250 19/06 A3014 RMK AO2 SLP204 T01890061

Closest aviation forecast (TAF) to Bluestem Airport

Closest forecast is Tulsa International Airport, 12.0 nm (22.2 km) S. Retrieved 2021-10-18 00:22 UTC (1 hour ago):

TAF KTUL 172320Z 1800/1824 19008KT P6SM FEW250 FM180900 VRB03KT P6SM SKC FM181700 18011G19KT P6SM SKC